sensor_id;sensor_type;location;lat;lon;timestamp;pressure;altitude;pressure_sealevel;temperature;humidity
5877;BME280;2964;42.144;24.730;2023-08-07T00:00:54;147374.28;;;23.42;59.03
5877;BME280;2964;42.144;24.730;2023-08-07T00:03:21;147411.09;;;23.57;58.56
5877;BME280;2964;42.144;24.730;2023-08-07T00:05:47;147298.22;;;23.11;59.25
5877;BME280;2964;42.144;24.730;2023-08-07T00:08:14;147318.50;;;23.20;59.44
5877;BME280;2964;42.144;24.730;2023-08-07T00:10:42;147371.75;;;23.41;58.90
5877;BME280;2964;42.144;24.730;2023-08-07T00:13:09;147335.00;;;23.26;59.12
5877;BME280;2964;42.144;24.730;2023-08-07T00:15:37;147342.63;;;23.29;58.85
5877;BME280;2964;42.144;24.730;2023-08-07T00:18:04;147378.09;;;23.44;58.53
5877;BME280;2964;42.144;24.730;2023-08-07T00:20:32;147384.44;;;23.46;58.72
5877;BME280;2964;42.144;24.730;2023-08-07T00:22:58;147403.47;;;23.54;58.37
5877;BME280;2964;42.144;24.730;2023-08-07T00:25:25;147435.19;;;23.67;57.60
5877;BME280;2964;42.144;24.730;2023-08-07T00:27:54;147445.31;;;23.71;57.85
5877;BME280;2964;42.144;24.730;2023-08-07T00:30:20;147423.72;;;23.62;58.10
5877;BME280;2964;42.144;24.730;2023-08-07T00:32:47;147314.69;;;23.18;57.90
5877;BME280;2964;42.144;24.730;2023-08-07T00:35:14;147416.16;;;23.59;57.95
5877;BME280;2964;42.144;24.730;2023-08-07T00:37:40;147394.59;;;23.50;58.45
5877;BME280;2964;42.144;24.730;2023-08-07T00:40:08;147384.44;;;23.46;58.74
5877;BME280;2964;42.144;24.730;2023-08-07T00:42:35;147390.78;;;23.49;58.51
5877;BME280;2964;42.144;24.730;2023-08-07T00:45:04;147379.38;;;23.44;58.62
5877;BME280;2964;42.144;24.730;2023-08-07T00:47:31;147355.25;;;23.35;58.87
5877;BME280;2964;42.144;24.730;2023-08-07T00:49:59;147343.88;;;23.30;58.95
5877;BME280;2964;42.144;24.730;2023-08-07T00:52:26;147319.78;;;23.20;59.36
5877;BME280;2964;42.144;24.730;2023-08-07T00:54:52;147310.91;;;23.17;59.73
5877;BME280;2964;42.144;24.730;2023-08-07T00:57:19;147315.97;;;23.19;59.79
5877;BME280;2964;42.144;24.730;2023-08-07T00:59:48;147257.59;;;22.95;60.59
5877;BME280;2964;42.144;24.730;2023-08-07T01:02:16;147279.22;;;23.04;60.48
5877;BME280;2964;42.144;24.730;2023-08-07T01:04:43;147282.97;;;23.05;60.58
5877;BME280;2964;42.144;24.730;2023-08-07T01:07:10;147220.84;;;22.80;61.49
5877;BME280;2964;42.144;24.730;2023-08-07T01:09:36;147213.22;;;22.77;61.69
5877;BME280;2964;42.144;24.730;2023-08-07T01:12:10;147179.03;;;22.63;62.06
5877;BME280;2964;42.144;24.730;2023-08-07T01:14:47;147170.16;;;22.60;62.55
5877;BME280;2964;42.144;24.730;2023-08-07T01:17:19;147167.59;;;22.59;62.40
5877;BME280;2964;42.144;24.730;2023-08-07T01:19:47;147175.22;;;22.62;62.52
5877;BME280;2964;42.144;24.730;2023-08-07T01:22:17;147144.78;;;22.49;63.41
5877;BME280;2964;42.144;24.730;2023-08-07T01:24:45;147127.06;;;22.42;63.22
5877;BME280;2964;42.144;24.730;2023-08-07T01:27:22;147113.13;;;22.36;63.39
5877;BME280;2964;42.144;24.730;2023-08-07T01:29:55;147073.81;;;22.21;63.91
5877;BME280;2964;42.144;24.730;2023-08-07T01:32:26;147096.69;;;22.30;63.67
5877;BME280;2964;42.144;24.730;2023-08-07T01:34:54;147114.38;;;22.37;64.01
5877;BME280;2964;42.144;24.730;2023-08-07T01:37:26;147127.06;;;22.42;64.16
5877;BME280;2964;42.144;24.730;2023-08-07T01:39:53;147122.00;;;22.40;64.07
5877;BME280;2964;42.144;24.730;2023-08-07T01:42:21;147129.59;;;22.43;64.00
5877;BME280;2964;42.144;24.730;2023-08-07T01:44:48;147025.66;;;22.01;64.80
5877;BME280;2964;42.144;24.730;2023-08-07T01:47:14;147000.31;;;21.91;65.65
5877;BME280;2964;42.144;24.730;2023-08-07T01:49:41;146981.31;;;21.83;65.98
5877;BME280;2964;42.144;24.730;2023-08-07T01:52:08;147006.66;;;21.93;65.34
5877;BME280;2964;42.144;24.730;2023-08-07T01:54:38;146968.63;;;21.78;66.10
5877;BME280;2964;42.144;24.730;2023-08-07T01:57:05;146919.28;;;21.58;67.18
5877;BME280;2964;42.144;24.730;2023-08-07T01:59:31;146850.84;;;21.30;67.76
5877;BME280;2964;42.144;24.730;2023-08-07T02:01:58;146938.25;;;21.66;67.62
5877;BME280;2964;42.144;24.730;2023-08-07T02:04:25;146947.13;;;21.69;67.46
5877;BME280;2964;42.144;24.730;2023-08-07T02:06:51;146926.84;;;21.61;67.42
5877;BME280;2964;42.144;24.730;2023-08-07T02:09:18;146886.31;;;21.45;68.21
5877;BME280;2964;42.144;24.730;2023-08-07T02:11:47;146923.03;;;21.59;67.84
5877;BME280;2964;42.144;24.730;2023-08-07T02:14:14;146942.06;;;21.67;66.89
5877;BME280;2964;42.144;24.730;2023-08-07T02:16:40;146877.41;;;21.41;68.26
5877;BME280;2964;42.144;24.730;2023-08-07T02:19:07;146911.66;;;21.55;67.98
5877;BME280;2964;42.144;24.730;2023-08-07T02:21:33;146952.19;;;21.71;67.34
5877;BME280;2964;42.144;24.730;2023-08-07T02:24:00;146953.44;;;21.72;67.68
5877;BME280;2964;42.144;24.730;2023-08-07T02:26:27;146948.38;;;21.70;67.68
5877;BME280;2964;42.144;24.730;2023-08-07T02:28:55;146926.84;;;21.61;67.37
5877;BME280;2964;42.144;24.730;2023-08-07T02:31:22;146959.75;;;21.74;67.43
5877;BME280;2964;42.144;24.730;2023-08-07T02:33:48;146877.41;;;21.41;68.73
5877;BME280;2964;42.144;24.730;2023-08-07T02:36:15;146881.19;;;21.43;69.04
5877;BME280;2964;42.144;24.730;2023-08-07T02:38:41;146877.41;;;21.41;69.04
5877;BME280;2964;42.144;24.730;2023-08-07T02:41:08;146902.78;;;21.51;69.03
5877;BME280;2964;42.144;24.730;2023-08-07T02:43:35;146873.63;;;21.39;69.17
5877;BME280;2964;42.144;24.730;2023-08-07T02:46:03;146877.41;;;21.41;69.39
5877;BME280;2964;42.144;24.730;2023-08-07T02:48:29;146904.03;;;21.52;69.10
5877;BME280;2964;42.144;24.730;2023-08-07T02:50:56;146828.06;;;21.21;70.40
5877;BME280;2964;42.144;24.730;2023-08-07T02:53:23;146878.69;;;21.42;70.19
5877;BME280;2964;42.144;24.730;2023-08-07T02:55:49;146893.94;;;21.48;69.76
5877;BME280;2964;42.144;24.730;2023-08-07T02:58:16;146826.75;;;21.20;70.53
5877;BME280;2964;42.144;24.730;2023-08-07T03:00:42;146817.88;;;21.17;70.24
5877;BME280;2964;42.144;24.730;2023-08-07T03:03:11;146853.34;;;21.31;70.25
5877;BME280;2964;42.144;24.730;2023-08-07T03:05:37;146822.94;;;21.19;71.07
5877;BME280;2964;42.144;24.730;2023-08-07T03:08:04;146828.06;;;21.21;70.21
5877;BME280;2964;42.144;24.730;2023-08-07T03:10:31;146876.16;;;21.40;70.26
5877;BME280;2964;42.144;24.730;2023-08-07T03:12:57;146848.28;;;21.29;70.79
5877;BME280;2964;42.144;24.730;2023-08-07T03:15:24;146817.88;;;21.17;71.06
5877;BME280;2964;42.144;24.730;2023-08-07T03:17:50;146769.81;;;20.97;71.64
5877;BME280;2964;42.144;24.730;2023-08-07T03:20:19;146802.72;;;21.11;71.44
5877;BME280;2964;42.144;24.730;2023-08-07T03:22:45;146774.88;;;20.99;72.00
5877;BME280;2964;42.144;24.730;2023-08-07T03:25:12;146758.41;;;20.93;72.29
5877;BME280;2964;42.144;24.730;2023-08-07T03:27:38;146759.66;;;20.93;72.77
5877;BME280;2964;42.144;24.730;2023-08-07T03:30:06;146757.13;;;20.92;72.77
5877;BME280;2964;42.144;24.730;2023-08-07T03:32:33;146736.84;;;20.84;72.75
5877;BME280;2964;42.144;24.730;2023-08-07T03:34:59;146812.84;;;21.15;71.40
5877;BME280;2964;42.144;24.730;2023-08-07T03:37:27;146750.81;;;20.90;72.45
5877;BME280;2964;42.144;24.730;2023-08-07T03:39:54;146772.31;;;20.98;71.96
5877;BME280;2964;42.144;24.730;2023-08-07T03:42:21;146800.16;;;21.10;71.34
5877;BME280;2964;42.144;24.730;2023-08-07T03:44:47;146848.28;;;21.29;70.48
5877;BME280;2964;42.144;24.730;2023-08-07T03:47:14;146816.63;;;21.16;71.06
5877;BME280;2964;42.144;24.730;2023-08-07T03:49:41;146807.78;;;21.13;70.50
5877;BME280;2964;42.144;24.730;2023-08-07T03:52:07;146839.44;;;21.26;70.48
5877;BME280;2964;42.144;24.730;2023-08-07T03:54:35;146805.25;;;21.12;70.67
5877;BME280;2964;42.144;24.730;2023-08-07T03:57:02;146821.69;;;21.18;70.89
5877;BME280;2964;42.144;24.730;2023-08-07T03:59:29;146840.69;;;21.26;70.75
5877;BME280;2964;42.144;24.730;2023-08-07T04:01:56;146817.88;;;21.17;70.92
5877;BME280;2964;42.144;24.730;2023-08-07T04:04:22;146828.06;;;21.21;71.86
5877;BME280;2964;42.144;24.730;2023-08-07T04:06:49;146825.50;;;21.20;71.14
5877;BME280;2964;42.144;24.730;2023-08-07T04:09:16;146872.34;;;21.39;70.66
5877;BME280;2964;42.144;24.730;2023-08-07T04:11:44;146828.06;;;21.21;71.13
5877;BME280;2964;42.144;24.730;2023-08-07T04:14:11;146759.66;;;20.93;70.86
5877;BME280;2964;42.144;24.730;2023-08-07T04:16:37;146891.38;;;21.47;71.17
5877;BME280;2964;42.144;24.730;2023-08-07T04:19:04;146916.72;;;21.57;70.22
5877;BME280;2964;42.144;24.730;2023-08-07T04:21:32;146948.38;;;21.70;69.59
5877;BME280;2964;42.144;24.730;2023-08-07T04:23:58;146942.06;;;21.67;69.73
5877;BME280;2964;42.144;24.730;2023-08-07T04:26:25;146943.31;;;21.68;70.03
5877;BME280;2964;42.144;24.730;2023-08-07T04:28:53;146916.72;;;21.57;70.86
5877;BME280;2964;42.144;24.730;2023-08-07T04:31:20;146944.56;;;21.68;69.35
5877;BME280;2964;42.144;24.730;2023-08-07T04:33:47;146959.75;;;21.74;70.48
5877;BME280;2964;42.144;24.730;2023-08-07T04:36:13;147012.97;;;21.96;68.99
5877;BME280;2964;42.144;24.730;2023-08-07T04:38:40;146990.19;;;21.87;69.35
5877;BME280;2964;42.144;24.730;2023-08-07T04:41:07;147025.66;;;22.01;68.76
5877;BME280;2964;42.144;24.730;2023-08-07T04:43:33;147018.03;;;21.98;68.35
5877;BME280;2964;42.144;24.730;2023-08-07T04:46:01;147035.78;;;22.05;68.66
5877;BME280;2964;42.144;24.730;2023-08-07T04:48:28;147118.19;;;22.39;67.20
5877;BME280;2964;42.144;24.730;2023-08-07T04:50:55;147094.13;;;22.29;67.24
5877;BME280;2964;42.144;24.730;2023-08-07T04:53:23;147147.34;;;22.50;66.43
5877;BME280;2964;42.144;24.730;2023-08-07T04:55:49;147149.88;;;22.51;65.86
5877;BME280;2964;42.144;24.730;2023-08-07T04:58:16;147378.09;;;23.44;64.95
5877;BME280;2964;42.144;24.730;2023-08-07T05:00:43;147690.28;;;24.70;60.15
5877;BME280;2964;42.144;24.730;2023-08-07T05:03:11;148001.44;;;25.96;57.54
5877;BME280;2964;42.144;24.730;2023-08-07T05:05:38;148295.00;;;27.14;56.22
5877;BME280;2964;42.144;24.730;2023-08-07T05:08:04;148445.06;;;27.75;53.45
5877;BME280;2964;42.144;24.730;2023-08-07T05:10:31;148511.28;;;28.02;49.57
5877;BME280;2964;42.144;24.730;2023-08-07T05:12:58;148573.56;;;28.27;49.92
5877;BME280;2964;42.144;24.730;2023-08-07T05:15:25;148651.22;;;28.58;49.40
5877;BME280;2964;42.144;24.730;2023-08-07T05:17:53;148712.31;;;28.83;47.42
5877;BME280;2964;42.144;24.730;2023-08-07T05:20:21;148844.69;;;29.36;50.93
5877;BME280;2964;42.144;24.730;2023-08-07T05:22:49;148894.34;;;29.56;46.51
5877;BME280;2964;42.144;24.730;2023-08-07T05:25:16;148972.03;;;29.88;45.34
5877;BME280;2964;42.144;24.730;2023-08-07T05:27:44;149053.56;;;30.20;45.14
5877;BME280;2964;42.144;24.730;2023-08-07T05:30:11;149335.22;;;31.34;44.96
5877;BME280;2964;42.144;24.730;2023-08-07T05:32:38;149266.41;;;31.06;45.00
5877;BME280;2964;42.144;24.730;2023-08-07T05:35:07;149344.13;;;31.38;41.92
5877;BME280;2964;42.144;24.730;2023-08-07T05:37:36;149354.31;;;31.42;44.87
5877;BME280;2964;42.144;24.730;2023-08-07T05:40:04;149384.97;;;31.54;41.95
5877;BME280;2964;42.144;24.730;2023-08-07T05:42:31;149332.66;;;31.33;43.01
5877;BME280;2964;42.144;24.730;2023-08-07T05:44:57;149249.81;;;31.00;44.40
5877;BME280;2964;42.144;24.730;2023-08-07T05:47:24;149391.31;;;31.57;40.78
5877;BME280;2964;42.144;24.730;2023-08-07T05:49:51;149361.94;;;31.45;40.82
5877;BME280;2964;42.144;24.730;2023-08-07T05:52:18;149586.41;;;32.35;42.11
5877;BME280;2964;42.144;24.730;2023-08-07T05:54:46;149531.63;;;32.13;40.16
5877;BME280;2964;42.144;24.730;2023-08-07T05:57:13;149719.09;;;32.88;39.99
5877;BME280;2964;42.144;24.730;2023-08-07T05:59:39;149816.13;;;33.27;37.49
5877;BME280;2964;42.144;24.730;2023-08-07T06:02:06;149711.47;;;32.85;39.65
5877;BME280;2964;42.144;24.730;2023-08-07T06:04:34;149863.31;;;33.46;37.75
5877;BME280;2964;42.144;24.730;2023-08-07T06:07:01;149938.63;;;33.77;37.82
5877;BME280;2964;42.144;24.730;2023-08-07T06:09:28;149928.44;;;33.73;37.45
5877;BME280;2964;42.144;24.730;2023-08-07T06:11:56;150192.78;;;34.79;34.63
5877;BME280;2964;42.144;24.730;2023-08-07T06:14:23;150191.47;;;34.78;36.20
5877;BME280;2964;42.144;24.730;2023-08-07T06:16:50;150149.28;;;34.61;34.71
5877;BME280;2964;42.144;24.730;2023-08-07T06:19:17;150085.47;;;34.36;33.89
5877;BME280;2964;42.144;24.730;2023-08-07T06:21:45;150231.06;;;34.94;33.91
5877;BME280;2964;42.144;24.730;2023-08-07T06:24:12;149893.97;;;33.59;35.47
5877;BME280;2964;42.144;24.730;2023-08-07T06:26:38;150195.31;;;34.80;33.45
5877;BME280;2964;42.144;24.730;2023-08-07T06:29:06;150406.09;;;35.65;33.18
5877;BME280;2964;42.144;24.730;2023-08-07T06:31:33;150411.19;;;35.67;30.34
5877;BME280;2964;42.144;24.730;2023-08-07T06:34:00;150332.00;;;35.35;33.19
5877;BME280;2964;42.144;24.730;2023-08-07T06:36:26;150339.69;;;35.38;31.50
5877;BME280;2964;42.144;24.730;2023-08-07T06:38:54;150369.06;;;35.50;31.24
5877;BME280;2964;42.144;24.730;2023-08-07T06:41:20;150600.38;;;36.43;30.77
5877;BME280;2964;42.144;24.730;2023-08-07T06:43:47;150176.16;;;34.72;31.86
5877;BME280;2964;42.144;24.730;2023-08-07T06:46:16;150475.13;;;35.92;32.46
5877;BME280;2964;42.144;24.730;2023-08-07T06:48:43;150597.88;;;36.42;31.28
5877;BME280;2964;42.144;24.730;2023-08-07T06:51:10;150686.09;;;36.77;28.59
5877;BME280;2964;42.144;24.730;2023-08-07T06:53:36;150489.19;;;35.98;29.47
5877;BME280;2964;42.144;24.730;2023-08-07T06:56:03;150633.66;;;36.56;28.79
5877;BME280;2964;42.144;24.730;2023-08-07T06:58:30;150523.69;;;36.12;29.92
5877;BME280;2964;42.144;24.730;2023-08-07T07:00:56;150358.84;;;35.46;30.31
5877;BME280;2964;42.144;24.730;2023-08-07T07:03:24;150533.91;;;36.16;29.88
5877;BME280;2964;42.144;24.730;2023-08-07T07:05:51;150332.00;;;35.35;30.41
5877;BME280;2964;42.144;24.730;2023-08-07T07:08:18;150362.69;;;35.47;30.82
5877;BME280;2964;42.144;24.730;2023-08-07T07:10:44;150231.06;;;34.94;31.82
5877;BME280;2964;42.144;24.730;2023-08-07T07:13:11;150585.06;;;36.37;29.88
5877;BME280;2964;42.144;24.730;2023-08-07T07:15:38;150902.25;;;37.64;27.61
5877;BME280;2964;42.144;24.730;2023-08-07T07:18:04;150279.63;;;35.14;30.16
5877;BME280;2964;42.144;24.730;2023-08-07T07:20:32;150640.03;;;36.59;27.77
5877;BME280;2964;42.144;24.730;2023-08-07T07:22:59;150556.97;;;36.25;29.47
5877;BME280;2964;42.144;24.730;2023-08-07T07:25:26;150664.34;;;36.68;28.92
5877;BME280;2964;42.144;24.730;2023-08-07T07:27:52;150967.47;;;37.90;27.41
5877;BME280;2964;42.144;24.730;2023-08-07T07:30:19;151204.25;;;38.85;25.74
5877;BME280;2964;42.144;24.730;2023-08-07T07:32:46;151232.41;;;38.96;25.54
5877;BME280;2964;42.144;24.730;2023-08-07T07:35:13;151219.59;;;38.91;27.19
5877;BME280;2964;42.144;24.730;2023-08-07T07:37:41;151165.84;;;38.70;26.54
5877;BME280;2964;42.144;24.730;2023-08-07T07:40:09;151287.47;;;39.18;26.79
5877;BME280;2964;42.144;24.730;2023-08-07T07:42:36;151462.88;;;39.89;25.71
5877;BME280;2964;42.144;24.730;2023-08-07T07:45:03;151494.94;;;40.02;22.82
5877;BME280;2964;42.144;24.730;2023-08-07T07:47:30;151478.28;;;39.95;22.82
5877;BME280;2964;42.144;24.730;2023-08-07T07:50:04;151387.38;;;39.59;23.71
5877;BME280;2964;42.144;24.730;2023-08-07T07:52:31;151150.50;;;38.64;24.66
5877;BME280;2964;42.144;24.730;2023-08-07T07:54:59;151552.59;;;40.25;23.00
5877;BME280;2964;42.144;24.730;2023-08-07T07:57:26;151793.50;;;41.21;22.10
5877;BME280;2964;42.144;24.730;2023-08-07T07:59:53;151976.78;;;41.95;21.38
5877;BME280;2964;42.144;24.730;2023-08-07T08:02:21;151758.84;;;41.07;20.60
5877;BME280;2964;42.144;24.730;2023-08-07T08:04:48;151926.78;;;41.75;20.72
5877;BME280;2964;42.144;24.730;2023-08-07T08:07:14;152066.50;;;42.31;20.24
5877;BME280;2964;42.144;24.730;2023-08-07T08:09:41;152069.09;;;42.32;19.60
5877;BME280;2964;42.144;24.730;2023-08-07T08:12:09;151598.72;;;40.43;19.94
5877;BME280;2964;42.144;24.730;2023-08-07T08:14:36;151273.41;;;39.13;22.56
5877;BME280;2964;42.144;24.730;2023-08-07T08:17:03;151468.06;;;39.91;21.26
5877;BME280;2964;42.144;24.730;2023-08-07T08:19:30;151547.41;;;40.23;20.09
5877;BME280;2964;42.144;24.730;2023-08-07T08:21:57;151465.50;;;39.90;20.53
5877;BME280;2964;42.144;24.730;2023-08-07T08:24:23;151899.88;;;41.64;19.25
5877;BME280;2964;42.144;24.730;2023-08-07T08:26:50;152003.75;;;42.06;18.75
5877;BME280;2964;42.144;24.730;2023-08-07T08:29:18;152129.38;;;42.56;19.49
5877;BME280;2964;42.144;24.730;2023-08-07T08:31:45;152408.97;;;43.68;18.66
5877;BME280;2964;42.144;24.730;2023-08-07T08:34:11;152231.97;;;42.97;19.16
5877;BME280;2964;42.144;24.730;2023-08-07T08:36:38;152131.94;;;42.57;18.37
5877;BME280;2964;42.144;24.730;2023-08-07T08:39:04;152142.22;;;42.61;19.04
5877;BME280;2964;42.144;24.730;2023-08-07T08:41:31;151756.31;;;41.06;20.57
5877;BME280;2964;42.144;24.730;2023-08-07T08:43:59;151648.63;;;40.63;19.64
5877;BME280;2964;42.144;24.730;2023-08-07T08:46:29;152237.09;;;42.99;18.64
5877;BME280;2964;42.144;24.730;2023-08-07T08:48:57;152055.00;;;42.26;18.77
5877;BME280;2964;42.144;24.730;2023-08-07T08:51:25;151781.91;;;41.17;19.34
5877;BME280;2964;42.144;24.730;2023-08-07T08:53:52;151969.06;;;41.92;19.04
5877;BME280;2964;42.144;24.730;2023-08-07T08:56:22;152366.66;;;43.51;18.88
5877;BME280;2964;42.144;24.730;2023-08-07T08:58:50;152566.88;;;44.31;17.23
5877;BME280;2964;42.144;24.730;2023-08-07T09:01:17;152691.38;;;44.81;17.53
5877;BME280;2964;42.144;24.730;2023-08-07T09:03:46;152280.72;;;43.16;17.97
5877;BME280;2964;42.144;24.730;2023-08-07T09:06:12;152527.09;;;44.15;17.70
5877;BME280;2964;42.144;24.730;2023-08-07T09:08:41;152705.47;;;44.86;17.01
5877;BME280;2964;42.144;24.730;2023-08-07T09:11:08;152207.59;;;42.87;18.77
5877;BME280;2964;42.144;24.730;2023-08-07T09:13:37;152401.31;;;43.65;17.03
5877;BME280;2964;42.144;24.730;2023-08-07T09:16:06;151762.69;;;41.09;19.75
5877;BME280;2964;42.144;24.730;2023-08-07T09:18:34;152020.38;;;42.12;19.17
5877;BME280;2964;42.144;24.730;2023-08-07T09:21:02;151969.06;;;41.92;18.83
5877;BME280;2964;42.144;24.730;2023-08-07T09:23:29;152301.22;;;43.25;17.21
5877;BME280;2964;42.144;24.730;2023-08-07T09:26:00;152478.28;;;43.95;16.71
5877;BME280;2964;42.144;24.730;2023-08-07T09:28:28;152684.94;;;44.78;16.25
5877;BME280;2964;42.144;24.730;2023-08-07T09:30:55;152710.59;;;44.88;15.70
5877;BME280;2964;42.144;24.730;2023-08-07T09:33:24;152347.44;;;43.43;17.26
5877;BME280;2964;42.144;24.730;2023-08-07T09:35:52;152704.16;;;44.86;16.18
5877;BME280;2964;42.144;24.730;2023-08-07T09:38:22;152586.09;;;44.39;16.54
5877;BME280;2964;42.144;24.730;2023-08-07T09:40:49;152892.91;;;45.61;16.59
5877;BME280;2964;42.144;24.730;2023-08-07T09:43:20;152587.38;;;44.39;16.83
5877;BME280;2964;42.144;24.730;2023-08-07T09:45:48;152424.44;;;43.74;16.78
5877;BME280;2964;42.144;24.730;2023-08-07T09:48:22;152316.63;;;43.31;17.26
5877;BME280;2964;42.144;24.730;2023-08-07T09:50:48;152179.38;;;42.76;18.10
5877;BME280;2964;42.144;24.730;2023-08-07T09:53:15;152147.34;;;42.63;18.07
5877;BME280;2964;42.144;24.730;2023-08-07T09:55:43;151048.13;;;38.22;21.32
5877;BME280;2964;42.144;24.730;2023-08-07T09:58:12;151292.59;;;39.21;20.21
5877;BME280;2964;42.144;24.730;2023-08-07T10:00:40;151377.09;;;39.54;19.94
5877;BME280;2964;42.144;24.730;2023-08-07T10:03:08;151405.31;;;39.66;19.98
5877;BME280;2964;42.144;24.730;2023-08-07T10:05:35;151153.09;;;38.65;21.35
5877;BME280;2964;42.144;24.730;2023-08-07T10:08:02;151176.09;;;38.74;20.84
5877;BME280;2964;42.144;24.730;2023-08-07T10:10:31;150675.88;;;36.73;23.20
5877;BME280;2964;42.144;24.730;2023-08-07T10:13:00;150420.19;;;35.70;23.28
5877;BME280;2964;42.144;24.730;2023-08-07T10:15:27;150259.16;;;35.06;25.32
5877;BME280;2964;42.144;24.730;2023-08-07T10:17:54;150217.03;;;34.89;25.78
5877;BME280;2964;42.144;24.730;2023-08-07T10:20:22;150029.25;;;34.13;25.63
5877;BME280;2964;42.144;24.730;2023-08-07T10:22:52;149795.69;;;33.19;27.06
5877;BME280;2964;42.144;24.730;2023-08-07T10:25:20;149601.72;;;32.41;28.49
5877;BME280;2964;42.144;24.730;2023-08-07T10:27:49;149650.22;;;32.61;29.15
5877;BME280;2964;42.144;24.730;2023-08-07T10:30:20;149281.69;;;31.12;30.98
5877;BME280;2964;42.144;24.730;2023-08-07T10:32:48;149438.47;;;31.75;30.99
5877;BME280;2964;42.144;24.730;2023-08-07T10:35:23;149490.78;;;31.97;30.25
5877;BME280;2964;42.144;24.730;2023-08-07T10:37:51;149554.56;;;32.22;30.94
5877;BME280;2964;42.144;24.730;2023-08-07T10:40:18;149577.53;;;32.31;30.07
5877;BME280;2964;42.144;24.730;2023-08-07T10:42:56;149581.31;;;32.33;30.52
5877;BME280;2964;42.144;24.730;2023-08-07T10:45:26;149336.47;;;31.34;29.33
5877;BME280;2964;42.144;24.730;2023-08-07T10:48:06;149128.78;;;30.51;31.14
5877;BME280;2964;42.144;24.730;2023-08-07T10:50:34;149206.47;;;30.82;31.07
5877;BME280;2964;42.144;24.730;2023-08-07T10:53:01;149280.41;;;31.12;31.43
5877;BME280;2964;42.144;24.730;2023-08-07T10:55:32;149267.66;;;31.07;31.87
5877;BME280;2964;42.144;24.730;2023-08-07T10:58:21;149285.50;;;31.14;30.75
5877;BME280;2964;42.144;24.730;2023-08-07T11:00:51;149201.34;;;30.80;30.23
5877;BME280;2964;42.144;24.730;2023-08-07T11:03:26;149210.25;;;30.84;31.59
5877;BME280;2964;42.144;24.730;2023-08-07T11:05:53;149225.59;;;30.90;31.82
5877;BME280;2964;42.144;24.730;2023-08-07T11:08:22;149085.44;;;30.33;30.13
5877;BME280;2964;42.144;24.730;2023-08-07T11:10:50;149084.19;;;30.33;31.45
5877;BME280;2964;42.144;24.730;2023-08-07T11:13:17;149108.38;;;30.43;31.21
5877;BME280;2964;42.144;24.730;2023-08-07T11:15:45;149066.28;;;30.26;31.36
5877;BME280;2964;42.144;24.730;2023-08-07T11:18:13;149086.69;;;30.34;30.99
5877;BME280;2964;42.144;24.730;2023-08-07T11:20:42;149037.03;;;30.14;30.99
5877;BME280;2964;42.144;24.730;2023-08-07T11:23:08;148989.88;;;29.95;31.77
5877;BME280;2964;42.144;24.730;2023-08-07T11:25:35;148979.69;;;29.91;32.01
5877;BME280;2964;42.144;24.730;2023-08-07T11:28:02;149006.44;;;30.01;32.24
5877;BME280;2964;42.144;24.730;2023-08-07T11:30:29;148940.22;;;29.75;32.89
5877;BME280;2964;42.144;24.730;2023-08-07T11:32:56;148956.78;;;29.81;33.23
5877;BME280;2964;42.144;24.730;2023-08-07T11:35:24;149007.72;;;30.02;32.63
5877;BME280;2964;42.144;24.730;2023-08-07T11:37:51;149012.78;;;30.04;32.82
5877;BME280;2964;42.144;24.730;2023-08-07T11:40:19;149038.28;;;30.14;33.25
5877;BME280;2964;42.144;24.730;2023-08-07T11:42:46;149051.03;;;30.19;33.40
5877;BME280;2964;42.144;24.730;2023-08-07T11:45:13;149076.47;;;30.30;33.06
5877;BME280;2964;42.144;24.730;2023-08-07T11:47:41;149014.09;;;30.05;32.81
5877;BME280;2964;42.144;24.730;2023-08-07T11:50:09;149021.72;;;30.08;33.02
5877;BME280;2964;42.144;24.730;2023-08-07T11:52:38;149067.56;;;30.26;33.82
5877;BME280;2964;42.144;24.730;2023-08-07T11:55:06;149076.47;;;30.30;33.67
5877;BME280;2964;42.144;24.730;2023-08-07T11:57:34;149057.38;;;30.22;33.08
5877;BME280;2964;42.144;24.730;2023-08-07T12:00:06;149014.09;;;30.05;33.14
5877;BME280;2964;42.144;24.730;2023-08-07T12:02:41;149066.28;;;30.26;34.16
5877;BME280;2964;42.144;24.730;2023-08-07T12:05:08;149107.09;;;30.42;34.44
5877;BME280;2964;42.144;24.730;2023-08-07T12:07:37;149121.13;;;30.48;34.35
5877;BME280;2964;42.144;24.730;2023-08-07T12:10:06;149117.28;;;30.46;32.55
5877;BME280;2964;42.144;24.730;2023-08-07T12:12:35;149076.47;;;30.30;33.47
5877;BME280;2964;42.144;24.730;2023-08-07T12:15:02;149081.56;;;30.32;33.71
5877;BME280;2964;42.144;24.730;2023-08-07T12:17:31;149124.94;;;30.49;33.79
5877;BME280;2964;42.144;24.730;2023-08-07T12:19:58;149144.03;;;30.57;34.12
5877;BME280;2964;42.144;24.730;2023-08-07T12:22:27;149165.72;;;30.66;33.95
5877;BME280;2964;42.144;24.730;2023-08-07T12:24:56;149165.72;;;30.66;32.55
5877;BME280;2964;42.144;24.730;2023-08-07T12:27:22;149053.56;;;30.20;33.40
5877;BME280;2964;42.144;24.730;2023-08-07T12:29:49;149175.88;;;30.70;32.64
5877;BME280;2964;42.144;24.730;2023-08-07T12:32:15;149165.72;;;30.66;32.73
5877;BME280;2964;42.144;24.730;2023-08-07T12:34:42;149170.78;;;30.68;32.98
5877;BME280;2964;42.144;24.730;2023-08-07T12:37:09;149182.25;;;30.72;33.78
5877;BME280;2964;42.144;24.730;2023-08-07T12:39:35;149198.81;;;30.79;34.04
5877;BME280;2964;42.144;24.730;2023-08-07T12:42:04;149193.72;;;30.77;32.93
5877;BME280;2964;42.144;24.730;2023-08-07T12:44:31;149179.72;;;30.71;33.21
5877;BME280;2964;42.144;24.730;2023-08-07T12:46:58;149183.53;;;30.73;33.45
5877;BME280;2964;42.144;24.730;2023-08-07T12:49:24;149156.78;;;30.62;34.25
5877;BME280;2964;42.144;24.730;2023-08-07T12:51:51;149178.41;;;30.71;34.07
5877;BME280;2964;42.144;24.730;2023-08-07T12:54:18;149178.41;;;30.71;33.84
5877;BME280;2964;42.144;24.730;2023-08-07T12:56:45;149158.03;;;30.63;34.43
5877;BME280;2964;42.144;24.730;2023-08-07T12:59:13;149089.28;;;30.35;34.68
5877;BME280;2964;42.144;24.730;2023-08-07T13:01:39;149126.19;;;30.50;34.85